Time;durP1;ratioP1;P1;durP2;ratioP2;P2;SDS_P1;SDS_P2;PMS_P1;PMS_P2;Temp;Humidity;BMP_temperature;BMP_pressure;BME280_temperature;BME280_humidity;BME280_pressure;Samples;Min_cycle;Max_cycle;Signal;HPM_P1;HPM_P2
2023/07/11 00:00:50;;;;;;;;;;;;;;;24.52;58.45;100865.81;7396284;19;1552;-57
2023/07/11 00:03:19;;;;;;;;;;;;;;;24.29;58.63;100871.00;7397893;19;1212;-57
2023/07/11 00:05:59;;;;;;;;;;;;;;;24.15;59.38;100876.06;7397883;19;1412;-57
2023/07/11 00:08:27;;;;;;;;;;;;;;;24.26;58.64;100865.94;7396662;19;1156;-57
2023/07/11 00:10:56;;;;;;;;;;;;;;;24.29;58.81;100855.66;7395426;19;1916;-57
2023/07/11 00:13:26;;;;;;;;;;;;;;;24.38;58.47;100864.59;7396507;19;1286;-57
2023/07/11 00:15:58;;;;;;;;;;;;;;;24.29;58.27;100876.41;7394744;19;1305;-57
2023/07/11 00:18:26;;;;;;;;;;;;;;;24.09;58.45;100876.72;7396613;19;1401;-57
2023/07/11 00:20:55;;;;;;;;;;;;;;;24.19;58.58;100876.56;7397138;19;1548;-57
2023/07/11 00:23:24;;;;;;;;;;;;;;;24.27;58.52;100867.63;7396099;19;1167;-57
2023/07/11 00:25:52;;;;;;;;;;;;;;;24.20;58.68;100873.69;7397780;19;1118;-57
2023/07/11 00:28:20;;;;;;;;;;;;;;;24.24;58.67;100876.09;7397145;19;1941;-57
2023/07/11 00:30:52;;;;;;;;;;;;;;;24.29;58.42;100877.28;7396280;19;1841;-57
2023/07/11 00:33:21;;;;;;;;;;;;;;;24.29;58.30;100879.97;7397079;19;1786;-57
2023/07/11 00:35:49;;;;;;;;;;;;;;;24.25;58.10;100877.75;7397384;19;1560;-57
2023/07/11 00:38:18;;;;;;;;;;;;;;;24.37;57.77;100869.16;7396490;19;1671;-57
2023/07/11 00:40:47;;;;;;;;;;;;;;;24.28;58.05;100877.44;7397583;19;2057;-57
2023/07/11 00:43:16;;;;;;;;;;;;;;;24.34;57.89;100887.56;7397804;19;1722;-57
2023/07/11 00:46:00;;;;;;;;;;;;;;;24.32;58.00;100868.81;7395692;19;1517;-57
2023/07/11 00:48:32;;;;;;;;;;;;;;;24.28;58.10;100880.13;7395806;19;1476;-57
2023/07/11 00:51:02;;;;;;;;;;;;;;;24.04;58.82;100864.75;7395089;19;1859;-57
2023/07/11 00:53:31;;;;;;;;;;;;;;;23.97;58.96;100880.75;7397364;19;1626;-57
2023/07/11 00:55:59;;;;;;;;;;;;;;;23.99;59.23;100889.53;7394350;19;1398;-57
2023/07/11 00:58:28;;;;;;;;;;;;;;;24.10;58.55;100889.22;7396515;19;1571;-57
2023/07/11 01:00:56;;;;;;;;;;;;;;;24.07;58.32;100897.66;7393462;19;1402;-57
2023/07/11 01:03:25;;;;;;;;;;;;;;;24.13;58.35;100902.41;7396068;19;1438;-57
2023/07/11 01:05:57;;;;;;;;;;;;;;;24.18;58.21;100896.50;7394136;19;1339;-57
2023/07/11 01:08:25;;;;;;;;;;;;;;;24.20;58.03;100889.06;7395780;19;1232;-57
2023/07/11 01:10:53;;;;;;;;;;;;;;;24.15;58.79;100895.00;7394700;19;1862;-57
2023/07/11 01:13:22;;;;;;;;;;;;;;;24.22;58.33;100892.47;7395647;19;1610;-57
2023/07/11 01:15:51;;;;;;;;;;;;;;;24.10;58.84;100889.22;7396125;19;1611;-57
2023/07/11 01:18:20;;;;;;;;;;;;;;;24.13;59.26;100878.09;7395718;19;1770;-57
2023/07/11 01:20:48;;;;;;;;;;;;;;;24.10;59.15;100881.13;7395514;19;1472;-57
2023/07/11 01:23:20;;;;;;;;;;;;;;;24.26;58.50;100879.47;7397220;19;1075;-57
2023/07/11 01:25:49;;;;;;;;;;;;;;;24.10;59.07;100883.81;7396537;19;1555;-57
2023/07/11 01:28:17;;;;;;;;;;;;;;;24.20;58.76;100884.50;7396920;19;1888;-57
2023/07/11 01:30:45;;;;;;;;;;;;;;;24.05;59.41;100880.75;7395179;19;1853;-57
2023/07/11 01:33:14;;;;;;;;;;;;;;;24.06;59.10;100887.03;7396122;19;2088;-57
2023/07/11 01:35:42;;;;;;;;;;;;;;;24.07;58.83;100886.84;7396944;19;1671;-57
2023/07/11 01:38:10;;;;;;;;;;;;;;;24.17;58.66;100875.88;7394388;19;1346;-57
2023/07/11 01:40:41;;;;;;;;;;;;;;;23.98;59.16;100894.09;7394593;19;1544;-57
2023/07/11 01:43:09;;;;;;;;;;;;;;;24.04;59.02;100872.84;7395398;19;1498;-57
2023/07/11 01:45:38;;;;;;;;;;;;;;;24.12;59.09;100865.59;7394945;19;1240;-57
2023/07/11 01:48:06;;;;;;;;;;;;;;;24.07;59.11;100859.00;7394033;19;1212;-57
2023/07/11 01:50:34;;;;;;;;;;;;;;;24.05;59.32;100848.34;7397520;19;1851;-57
2023/07/11 01:53:03;;;;;;;;;;;;;;;23.81;59.91;100857.25;7401859;19;1484;-57
2023/07/11 01:55:31;;;;;;;;;;;;;;;23.87;59.73;100851.19;7402081;19;1349;-57
2023/07/11 01:58:02;;;;;;;;;;;;;;;23.89;59.72;100861.81;7402075;19;1402;-57
2023/07/11 02:00:31;;;;;;;;;;;;;;;24.01;59.45;100865.91;7399748;19;1759;-57
2023/07/11 02:02:59;;;;;;;;;;;;;;;24.12;58.96;100859.34;7401352;19;1588;-57
2023/07/11 02:05:27;;;;;;;;;;;;;;;23.86;59.53;100848.69;7400839;19;1702;-57
2023/07/11 02:07:55;;;;;;;;;;;;;;;23.87;60.08;100847.66;7397536;19;1445;-57
2023/07/11 02:10:24;;;;;;;;;;;;;;;23.89;59.85;100865.38;7400707;19;1845;-57
2023/07/11 02:12:52;;;;;;;;;;;;;;;23.84;60.04;100856.94;7399924;19;1540;-57
2023/07/11 02:15:23;;;;;;;;;;;;;;;23.77;60.36;100856.72;7400683;19;1543;-57
2023/07/11 02:17:51;;;;;;;;;;;;;;;24.05;59.50;100864.56;7402208;19;1441;-57
2023/07/11 02:20:19;;;;;;;;;;;;;;;24.10;58.87;100843.28;7401033;19;1512;-57
2023/07/11 02:22:48;;;;;;;;;;;;;;;24.14;58.51;100854.63;7400626;19;1924;-57
2023/07/11 02:25:17;;;;;;;;;;;;;;;24.01;59.30;100857.78;7397799;19;1168;-57
2023/07/11 02:27:45;;;;;;;;;;;;;;;24.14;59.20;100868.97;7400987;19;1168;-57
2023/07/11 02:30:13;;;;;;;;;;;;;;;23.86;59.77;100870.28;7399210;19;1859;-57
2023/07/11 02:32:44;;;;;;;;;;;;;;;23.73;60.46;100882.34;7401032;19;1478;-57
2023/07/11 02:35:13;;;;;;;;;;;;;;;23.91;59.96;100867.91;7401064;19;1564;-57
2023/07/11 02:37:41;;;;;;;;;;;;;;;24.05;59.11;100875.34;7400024;19;1563;-57
2023/07/11 02:40:10;;;;;;;;;;;;;;;24.11;58.66;100874.69;7400745;19;1292;-57
2023/07/11 02:42:38;;;;;;;;;;;;;;;24.16;58.57;100866.94;7400227;19;1270;-57
2023/07/11 02:45:07;;;;;;;;;;;;;;;24.18;58.60;100867.63;7399761;19;1493;-57
2023/07/11 02:47:35;;;;;;;;;;;;;;;24.12;58.66;100876.41;7400209;19;1457;-57
2023/07/11 02:50:07;;;;;;;;;;;;;;;23.95;59.45;100870.09;7395993;19;1850;-57
2023/07/11 02:52:35;;;;;;;;;;;;;;;23.88;59.87;100884.47;7398746;19;1188;-57
2023/07/11 02:55:04;;;;;;;;;;;;;;;23.93;60.04;100871.28;7399635;19;1474;-57
2023/07/11 02:57:32;;;;;;;;;;;;;;;24.10;59.05;100883.00;7399245;19;1619;-57
2023/07/11 03:00:00;;;;;;;;;;;;;;;24.20;58.83;100884.50;7398871;19;1532;-57
2023/07/11 03:02:29;;;;;;;;;;;;;;;23.88;59.68;100870.97;7396741;19;1564;-57
2023/07/11 03:04:57;;;;;;;;;;;;;;;23.91;59.82;100865.22;7398588;19;1495;-58
2023/07/11 03:07:28;;;;;;;;;;;;;;;24.06;59.27;100868.97;7398642;19;1418;-57
2023/07/11 03:09:56;;;;;;;;;;;;;;;23.81;59.96;100858.13;7398695;19;1518;-57
2023/07/11 03:12:25;;;;;;;;;;;;;;;23.77;60.07;100872.94;7397801;19;1849;-57
2023/07/11 03:14:53;;;;;;;;;;;;;;;23.68;60.10;100873.91;7397845;19;1500;-57
2023/07/11 03:17:21;;;;;;;;;;;;;;;23.70;60.42;100876.44;7397711;19;1742;-57
2023/07/11 03:19:50;;;;;;;;;;;;;;;23.74;60.28;100877.81;7398288;19;1438;-57
2023/07/11 03:22:18;;;;;;;;;;;;;;;23.86;59.92;100887.31;7399385;19;1697;-57
2023/07/11 03:24:49;;;;;;;;;;;;;;;23.70;60.46;100888.09;7398009;19;1695;-57
2023/07/11 03:27:18;;;;;;;;;;;;;;;23.77;60.19;100878.34;7399575;19;1734;-57
2023/07/11 03:29:46;;;;;;;;;;;;;;;23.69;60.94;100889.06;7399162;19;1579;-57
2023/07/11 03:32:14;;;;;;;;;;;;;;;23.87;60.59;100888.16;7391879;19;1844;-59
2023/07/11 03:34:43;;;;;;;;;;;;;;;23.74;60.43;100881.34;7398957;19;1520;-59
2023/07/11 03:37:11;;;;;;;;;;;;;;;23.90;60.14;100882.44;7397074;19;1094;-59
2023/07/11 03:39:39;;;;;;;;;;;;;;;23.67;60.29;100871.38;7397617;19;1415;-59
2023/07/11 03:42:10;;;;;;;;;;;;;;;23.86;60.23;100884.63;7395575;19;1211;-59
2023/07/11 03:44:40;;;;;;;;;;;;;;;23.91;60.00;100881.41;7396376;19;1742;-59
2023/07/11 03:47:09;;;;;;;;;;;;;;;23.94;59.36;100875.69;7395183;19;1416;-60
2023/07/11 03:49:37;;;;;;;;;;;;;;;24.08;59.35;100888.56;7397066;19;1677;-59
2023/07/11 03:52:06;;;;;;;;;;;;;;;23.98;59.04;100890.56;7396731;19;1908;-60
2023/07/11 03:54:34;;;;;;;;;;;;;;;24.23;58.67;100872.50;7396846;19;1520;-60
2023/07/11 03:57:03;;;;;;;;;;;;;;;24.20;59.05;100878.25;7396637;19;1486;-61
2023/07/11 03:59:34;;;;;;;;;;;;;;;24.09;59.36;100871.31;7397774;19;1729;-60
2023/07/11 04:02:02;;;;;;;;;;;;;;;23.94;60.04;100886.50;7397938;19;1524;-60
2023/07/11 04:04:30;;;;;;;;;;;;;;;23.88;60.55;100889.88;7397984;19;1516;-59
2023/07/11 04:06:58;;;;;;;;;;;;;;;23.88;60.45;100892.56;7395852;19;1595;-60
2023/07/11 04:09:27;;;;;;;;;;;;;;;23.84;60.14;100873.13;7397026;19;1139;-60
2023/07/11 04:11:55;;;;;;;;;;;;;;;23.93;60.07;100866.72;7395140;19;1856;-60
2023/07/11 04:14:24;;;;;;;;;;;;;;;23.92;60.22;100872.31;7396509;19;1207;-60
2023/07/11 04:16:54;;;;;;;;;;;;;;;24.01;59.68;100869.47;7395741;19;1757;-60
2023/07/11 04:19:23;;;;;;;;;;;;;;;23.92;59.94;100864.22;7397249;19;1552;-60
2023/07/11 04:21:51;;;;;;;;;;;;;;;23.95;59.87;100870.09;7396374;19;1528;-60
2023/07/11 04:24:20;;;;;;;;;;;;;;;23.85;60.07;100871.28;7395452;19;1216;-59
2023/07/11 04:26:48;;;;;;;;;;;;;;;23.78;60.94;100885.44;7395965;19;1469;-60
2023/07/11 04:29:16;;;;;;;;;;;;;;;23.79;60.64;100870.91;7395751;19;1393;-58
2023/07/11 04:31:44;;;;;;;;;;;;;;;23.91;60.79;100889.53;7392906;19;1857;-59
2023/07/11 04:34:15;;;;;;;;;;;;;;;24.02;60.64;100854.09;7396316;19;1381;-58
2023/07/11 04:36:44;;;;;;;;;;;;;;;24.02;61.63;100892.75;7396080;19;1866;-57
2023/07/11 04:39:12;;;;;;;;;;;;;;;24.10;60.51;100872.19;7396839;19;1425;-57
2023/07/11 04:41:40;;;;;;;;;;;;;;;24.07;60.79;100870.63;7396466;19;1586;-57
2023/07/11 04:44:08;;;;;;;;;;;;;;;24.02;60.92;100891.91;7395961;19;1730;-57
2023/07/11 04:46:38;;;;;;;;;;;;;;;23.98;60.97;100891.41;7395742;19;1529;-57
2023/07/11 04:49:06;;;;;;;;;;;;;;;23.98;61.34;100898.66;7396150;19;1227;-57
2023/07/11 04:51:37;;;;;;;;;;;;;;;23.88;61.27;100889.88;7395117;19;1846;-56
2023/07/11 04:54:06;;;;;;;;;;;;;;;23.90;61.18;100890.53;7395374;19;1374;-56
2023/07/11 04:56:34;;;;;;;;;;;;;;;23.89;61.32;100894.25;7391438;19;1785;-56
2023/07/11 04:59:02;;;;;;;;;;;;;;;23.95;61.29;100894.41;7392649;19;1278;-57
2023/07/11 05:01:30;;;;;;;;;;;;;;;24.12;61.07;100881.81;7390712;19;2046;-56
2023/07/11 05:04:00;;;;;;;;;;;;;;;24.15;61.07;100886.00;7391988;19;1951;-56
2023/07/11 05:06:28;;;;;;;;;;;;;;;24.17;60.73;100895.66;7392782;19;1489;-57
2023/07/11 05:08:59;;;;;;;;;;;;;;;24.30;60.68;100905.13;7391495;19;1390;-57
2023/07/11 05:11:27;;;;;;;;;;;;;;;24.56;60.20;100900.44;7394424;19;1855;-56
2023/07/11 05:13:55;;;;;;;;;;;;;;;24.38;61.07;100886.22;7395099;19;1484;-56
2023/07/11 05:16:25;;;;;;;;;;;;;;;24.40;60.93;100895.00;7394454;19;1448;-57
2023/07/11 05:18:53;;;;;;;;;;;;;;;24.41;60.47;100888.56;7392541;19;1618;-57
2023/07/11 05:21:22;;;;;;;;;;;;;;;24.54;59.69;100872.72;7391579;19;1536;-57
2023/07/11 05:23:50;;;;;;;;;;;;;;;24.58;60.25;100886.75;7394465;19;1614;-56
2023/07/11 05:26:21;;;;;;;;;;;;;;;24.52;60.19;100882.88;7403060;19;1060;-57
2023/07/11 05:28:50;;;;;;;;;;;;;;;24.54;60.35;100886.25;7402385;19;1100;-56
2023/07/11 05:31:18;;;;;;;;;;;;;;;24.56;59.98;100884.22;7396546;19;1875;-57
2023/07/11 05:33:47;;;;;;;;;;;;;;;24.68;59.48;100897.41;7396796;19;1378;-56
2023/07/11 05:36:31;;;;;;;;;;;;;;;24.80;59.69;100898.75;7392480;19;1464;-59
2023/07/11 05:38:59;;;;;;;;;;;;;;;24.95;59.59;100902.44;7397914;19;1529;-59
2023/07/11 05:41:30;;;;;;;;;;;;;;;24.77;60.25;100891.81;7398755;19;1472;-58
2023/07/11 05:43:58;;;;;;;;;;;;;;;24.75;60.04;100884.88;7397110;19;1489;-58
2023/07/11 05:46:27;;;;;;;;;;;;;;;24.84;60.07;100891.97;7401051;19;1166;-57
2023/07/11 05:48:56;;;;;;;;;;;;;;;24.82;61.08;100888.59;7401775;19;1124;-58
2023/07/11 05:51:25;;;;;;;;;;;;;;;24.87;60.58;100891.66;7401161;19;1857;-58
2023/07/11 05:53:53;;;;;;;;;;;;;;;24.91;60.70;100898.41;7397905;19;1540;-59
2023/07/11 05:56:22;;;;;;;;;;;;;;;25.00;61.55;100889.22;7398110;19;1092;-59
2023/07/11 05:58:54;;;;;;;;;;;;;;;24.81;62.35;100903.16;7400854;19;1709;-59
2023/07/11 06:01:24;;;;;;;;;;;;;;;24.87;62.22;100898.88;7395682;19;1612;-58
2023/07/11 06:03:53;;;;;;;;;;;;;;;24.78;62.43;100885.38;7400998;19;1505;-60
2023/07/11 06:06:21;;;;;;;;;;;;;;;24.89;62.27;100904.97;7400726;19;1233;-58
2023/07/11 06:08:50;;;;;;;;;;;;;;;25.02;61.99;100895.31;7400016;19;1545;-58
2023/07/11 06:11:18;;;;;;;;;;;;;;;24.86;63.51;100908.88;7397951;19;1846;-58
2023/07/11 06:13:47;;;;;;;;;;;;;;;24.85;63.32;100903.63;7399645;19;1314;-59
2023/07/11 06:16:18;;;;;;;;;;;;;;;24.84;62.67;100908.19;7398452;19;1279;-60
2023/07/11 06:18:48;;;;;;;;;;;;;;;24.70;64.44;100898.06;7389755;19;1185;-59
2023/07/11 06:21:17;;;;;;;;;;;;;;;24.97;64.81;100911.22;7396176;19;1564;-43
2023/07/11 06:23:46;;;;;;;;;;;;;;;24.90;64.16;100910.22;7396022;19;1797;-42
2023/07/11 06:26:15;;;;;;;;;;;;;;;24.85;64.78;100890.97;7394333;19;1805;-42
2023/07/11 06:28:44;;;;;;;;;;;;;;;24.79;65.62;100894.34;7397544;19;1382;-42
2023/07/11 06:31:13;;;;;;;;;;;;;;;25.11;64.29;100898.00;7398398;19;1841;-42
2023/07/11 06:33:45;;;;;;;;;;;;;;;25.04;64.62;100897.00;7398454;19;1986;-42
2023/07/11 06:36:13;;;;;;;;;;;;;;;24.92;67.40;100902.78;7399649;19;1932;-42
2023/07/11 06:38:42;;;;;;;;;;;;;;;24.85;67.00;100893.69;7397001;19;1413;-42
2023/07/11 06:41:10;;;;;;;;;;;;;;;24.90;66.30;100912.91;7391751;19;1561;-59
2023/07/11 06:43:38;;;;;;;;;;;;;;;24.93;65.57;100899.06;7390628;19;1458;-61
2023/07/11 06:46:06;;;;;;;;;;;;;;;24.93;65.58;100904.47;7391462;19;2039;-62
2023/07/11 06:48:35;;;;;;;;;;;;;;;24.92;66.54;100893.81;7395789;19;1528;-62
2023/07/11 06:51:06;;;;;;;;;;;;;;;24.99;65.86;100884.84;7396466;19;1228;-65
2023/07/11 06:53:35;;;;;;;;;;;;;;;25.18;65.59;100880.06;7396675;19;1849;-58
2023/07/11 06:56:04;;;;;;;;;;;;;;;24.97;66.07;100865.25;7396844;19;1735;-44
2023/07/11 06:58:32;;;;;;;;;;;;;;;25.02;65.65;100878.25;7397876;19;1734;-42
2023/07/11 07:01:02;;;;;;;;;;;;;;;25.04;65.70;100872.66;7397589;19;1220;-40
2023/07/11 07:03:30;;;;;;;;;;;;;;;25.06;65.36;100881.44;7399281;19;1505;-39
2023/07/11 07:05:59;;;;;;;;;;;;;;;24.99;65.34;100879.44;7398660;19;1350;-39
2023/07/11 07:08:30;;;;;;;;;;;;;;;24.98;65.57;100875.03;7398149;19;1191;-38
2023/07/11 07:10:59;;;;;;;;;;;;;;;24.96;65.40;100863.53;7397480;19;1258;-38
2023/07/11 07:13:27;;;;;;;;;;;;;;;25.02;65.67;100879.06;7396867;19;1832;-38
2023/07/11 07:15:57;;;;;;;;;;;;;;;25.06;65.84;100867.91;7396328;19;1415;-38
2023/07/11 07:18:25;;;;;;;;;;;;;;;25.09;66.26;100873.84;7397243;19;1394;-39
2023/07/11 07:20:54;;;;;;;;;;;;;;;25.06;65.99;100895.81;7395223;19;1374;-38
2023/07/11 07:23:23;;;;;;;;;;;;;;;25.00;66.09;100886.53;7396050;19;1396;-39
2023/07/11 07:25:55;;;;;;;;;;;;;;;25.00;65.87;100866.75;7399055;19;1092;-39
2023/07/11 07:28:24;;;;;;;;;;;;;;;24.91;66.67;100884.00;7398633;19;1152;-54
2023/07/11 07:30:53;;;;;;;;;;;;;;;24.95;66.64;100883.50;7397687;19;1838;-38
2023/07/11 07:33:23;;;;;;;;;;;;;;;24.85;66.92;100866.63;7396310;19;1936;-39
2023/07/11 07:35:52;;;;;;;;;;;;;;;24.92;66.33;100856.78;7397617;19;1560;-39
2023/07/11 07:38:20;;;;;;;;;;;;;;;24.94;66.47;100865.56;7398373;19;1493;-38
2023/07/11 07:40:56;;;;;;;;;;;;;;;24.90;66.48;100872.34;7396785;19;1402;-38
2023/07/11 07:43:24;;;;;;;;;;;;;;;24.86;66.83;100851.22;7398312;19;1532;-38
2023/07/11 07:45:53;;;;;;;;;;;;;;;24.91;66.43;100859.66;7398058;19;1398;-38
2023/07/11 07:48:22;;;;;;;;;;;;;;;24.91;65.75;100838.88;7396968;19;1360;-39
2023/07/11 07:50:50;;;;;;;;;;;;;;;24.94;66.00;100862.88;7397031;19;1834;-38
2023/07/11 07:53:19;;;;;;;;;;;;;;;24.90;65.48;100842.59;7395019;19;1921;-38
2023/07/11 07:55:47;;;;;;;;;;;;;;;24.95;65.38;100840.22;7397406;19;1536;-38
2023/07/11 07:58:18;;;;;;;;;;;;;;;25.07;65.41;100862.34;7397092;19;1488;-38
2023/07/11 08:00:46;;;;;;;;;;;;;;;24.99;65.78;100849.69;7393343;19;1473;-38
2023/07/11 08:03:15;;;;;;;;;;;;;;;24.91;65.75;100836.19;7395821;19;1947;-39
2023/07/11 08:05:43;;;;;;;;;;;;;;;24.92;65.66;100843.25;7393120;19;1632;-39
2023/07/11 08:08:11;;;;;;;;;;;;;;;24.94;65.56;100853.91;7396801;19;1591;-38
2023/07/11 08:10:40;;;;;;;;;;;;;;;24.91;65.63;100838.88;7395774;19;1201;-38
2023/07/11 08:13:08;;;;;;;;;;;;;;;24.94;65.42;100843.94;7395744;19;1857;-38
2023/07/11 08:15:41;;;;;;;;;;;;;;;24.96;65.50;100847.31;7396096;19;1478;-38
2023/07/11 08:18:09;;;;;;;;;;;;;;;25.00;65.88;100843.22;7393722;19;1516;-36
2023/07/11 08:20:37;;;;;;;;;;;;;;;25.11;65.27;100846.59;7391613;19;1311;-35
2023/07/11 08:23:06;;;;;;;;;;;;;;;24.98;65.67;100845.28;7395022;19;1315;-35
2023/07/11 08:25:36;;;;;;;;;;;;;;;24.91;65.52;100847.00;7396243;19;1944;-35
2023/07/11 08:28:04;;;;;;;;;;;;;;;24.90;65.88;100842.59;7396468;19;1549;-35
2023/07/11 08:30:33;;;;;;;;;;;;;;;24.91;66.03;100846.13;7396043;19;1298;-35
2023/07/11 08:33:04;;;;;;;;;;;;;;;24.86;65.71;100835.84;7395179;19;1842;-36
2023/07/11 08:35:32;;;;;;;;;;;;;;;24.86;65.85;100841.25;7397469;19;1028;-35
2023/07/11 08:38:01;;;;;;;;;;;;;;;24.86;66.14;100846.66;7396269;19;1565;-35
2023/07/11 08:40:31;;;;;;;;;;;;;;;24.83;65.96;100825.38;7395882;19;1115;-35
2023/07/11 08:43:03;;;;;;;;;;;;;;;24.87;65.92;100839.38;7396311;19;1044;-35
2023/07/11 08:45:34;;;;;;;;;;;;;;;24.80;66.03;100825.72;7395406;19;1769;-35
2023/07/11 08:48:07;;;;;;;;;;;;;;;24.83;65.80;100840.75;7395497;19;1844;-35
2023/07/11 08:50:36;;;;;;;;;;;;;;;24.92;65.59;100829.72;7392577;19;1545;-36
2023/07/11 08:53:09;;;;;;;;;;;;;;;24.90;65.49;100830.94;7392542;19;1857;-35
2023/07/11 08:55:40;;;;;;;;;;;;;;;24.85;65.72;100830.59;7392732;19;1684;-39
2023/07/11 08:58:12;;;;;;;;;;;;;;;24.76;65.81;100818.97;7394581;19;1273;-35
2023/07/11 09:00:42;;;;;;;;;;;;;;;24.86;65.47;100825.03;7398457;19;1170;-35
2023/07/11 09:03:22;;;;;;;;;;;;;;;24.97;65.05;100826.53;7400890;19;1600;-35
2023/07/11 09:05:53;;;;;;;;;;;;;;;25.02;64.94;100824.97;7401235;19;1543;-35
2023/07/11 09:08:22;;;;;;;;;;;;;;;25.05;64.98;100817.50;7403285;19;1477;-35
2023/07/11 09:10:53;;;;;;;;;;;;;;;25.02;64.53;100819.56;7402923;19;1539;-35
2023/07/11 09:13:33;;;;;;;;;;;;;;;24.95;65.02;100806.94;7401183;19;1853;-35
2023/07/11 09:16:06;;;;;;;;;;;;;;;24.92;65.59;100813.50;7403322;19;1501;-35
2023/07/11 09:18:42;;;;;;;;;;;;;;;24.87;65.32;100805.09;7403213;19;1493;-36
2023/07/11 09:21:14;;;;;;;;;;;;;;;24.86;65.73;100792.56;7402161;19;1545;-36
2023/07/11 09:23:46;;;;;;;;;;;;;;;24.85;65.60;100790.88;7402578;19;1548;-36
2023/07/11 09:26:19;;;;;;;;;;;;;;;24.87;65.35;100791.56;7403749;19;1898;-35
2023/07/11 09:28:48;;;;;;;;;;;;;;;24.95;65.17;100824.00;7402512;19;1602;-35
2023/07/11 09:31:18;;;;;;;;;;;;;;;24.96;65.06;100792.38;7403078;19;1194;-36
2023/07/11 09:33:53;;;;;;;;;;;;;;;24.99;64.99;100792.88;7399669;19;1964;-35
2023/07/11 09:36:23;;;;;;;;;;;;;;;25.00;64.68;100794.53;7400713;19;1640;-35
2023/07/11 09:38:52;;;;;;;;;;;;;;;25.02;64.85;100780.84;7401128;19;1494;-36
2023/07/11 09:41:23;;;;;;;;;;;;;;;25.03;64.76;100779.84;7400092;19;1571;-36
2023/07/11 09:43:51;;;;;;;;;;;;;;;25.04;64.75;100792.34;7400706;19;1323;-36
2023/07/11 09:46:24;;;;;;;;;;;;;;;25.02;64.89;100800.63;7400802;19;1608;-36
2023/07/11 09:48:56;;;;;;;;;;;;;;;25.02;64.70;100780.84;7401360;19;1274;-35
2023/07/11 09:51:30;;;;;;;;;;;;;;;25.00;64.93;100778.31;7401955;19;1335;-35
2023/07/11 09:53:58;;;;;;;;;;;;;;;25.00;64.84;100786.41;7400798;19;1845;-36
2023/07/11 09:56:27;;;;;;;;;;;;;;;25.01;64.77;100812.47;7401842;19;1192;-36
2023/07/11 09:58:57;;;;;;;;;;;;;;;24.98;64.82;100782.22;7403223;19;1230;-36
2023/07/11 10:01:26;;;;;;;;;;;;;;;24.95;65.18;100778.00;7399415;19;1685;-36
2023/07/11 10:03:59;;;;;;;;;;;;;;;24.94;65.08;100776.31;7401440;19;1557;-35
2023/07/11 10:06:30;;;;;;;;;;;;;;;24.91;65.41;100782.06;7399221;19;1501;-35
2023/07/11 10:08:58;;;;;;;;;;;;;;;24.88;65.55;100768.88;7402350;19;1159;-36
2023/07/11 10:11:26;;;;;;;;;;;;;;;24.90;65.51;100774.13;7400071;19;1496;-36
2023/07/11 10:13:58;;;;;;;;;;;;;;;24.90;65.62;100791.19;7400565;19;1849;-35
2023/07/11 10:16:27;;;;;;;;;;;;;;;24.86;65.91;100776.34;7400757;19;1224;-36
2023/07/11 10:18:58;;;;;;;;;;;;;;;24.77;66.32;100771.94;7400478;19;1252;-36
2023/07/11 10:21:27;;;;;;;;;;;;;;;24.82;66.03;100764.19;7400476;19;1547;-35
2023/07/11 10:23:56;;;;;;;;;;;;;;;24.85;65.73;100771.97;7399967;19;1615;-36
2023/07/11 10:26:25;;;;;;;;;;;;;;;24.87;65.70;100767.22;7401124;19;1855;-36
2023/07/11 10:28:58;;;;;;;;;;;;;;;24.91;65.63;100749.63;7401538;19;1103;-36
2023/07/11 10:31:28;;;;;;;;;;;;;;;24.87;65.69;100748.28;7400801;19;1580;-36
2023/07/11 10:34:02;;;;;;;;;;;;;;;24.86;65.45;100743.88;7398681;19;1864;-36
2023/07/11 10:36:34;;;;;;;;;;;;;;;24.86;65.78;100745.75;7400602;19;1270;-36
2023/07/11 10:39:03;;;;;;;;;;;;;;;25.15;65.43;100737.84;7400320;19;1553;-36
2023/07/11 10:41:35;;;;;;;;;;;;;;;25.02;65.56;100741.09;7401165;19;1559;-36
2023/07/11 10:44:05;;;;;;;;;;;;;;;24.97;65.56;100724.56;7400202;19;1540;-36
2023/07/11 10:46:37;;;;;;;;;;;;;;;24.94;65.64;100745.72;7400611;19;1470;-35
2023/07/11 10:49:11;;;;;;;;;;;;;;;24.93;65.47;100730.47;7400795;19;1619;-36
2023/07/11 10:51:42;;;;;;;;;;;;;;;24.92;65.58;100745.88;7400524;19;1532;-36
2023/07/11 10:54:15;;;;;;;;;;;;;;;24.88;65.79;100728.31;7399158;19;1861;-36
2023/07/11 10:56:46;;;;;;;;;;;;;;;24.88;65.56;100708.53;7399621;19;1314;-36
2023/07/11 10:59:15;;;;;;;;;;;;;;;24.89;65.69;100705.66;7394762;19;1829;-35
2023/07/11 11:01:47;;;;;;;;;;;;;;;24.92;65.92;100721.53;7391038;19;1351;-35
2023/07/11 11:04:32;;;;;;;;;;;;;;;24.94;65.46;100710.53;7393772;19;1937;-36
2023/07/11 11:07:01;;;;;;;;;;;;;;;24.96;65.65;100703.94;7393685;19;1311;-36
2023/07/11 11:09:35;;;;;;;;;;;;;;;24.94;65.49;100692.44;7394481;19;1956;-36
2023/07/11 11:12:07;;;;;;;;;;;;;;;24.95;65.36;100701.41;7391256;19;1774;-36
2023/07/11 11:14:41;;;;;;;;;;;;;;;24.91;65.50;100698.22;7391897;19;1928;-36
2023/07/11 11:17:16;;;;;;;;;;;;;;;24.97;65.58;100691.25;7393841;19;1626;-36
2023/07/11 11:19:58;;;;;;;;;;;;;;;24.90;65.61;100704.63;7392795;19;1262;-36
2023/07/11 11:22:28;;;;;;;;;;;;;;;24.92;65.35;100689.06;7392260;19;1172;-36
2023/07/11 11:25:00;;;;;;;;;;;;;;;24.94;65.33;100691.59;7396015;19;1464;-36
2023/07/11 11:27:40;;;;;;;;;;;;;;;24.91;65.49;100684.69;7396823;19;1586;-36
2023/07/11 11:30:19;;;;;;;;;;;;;;;24.90;65.62;100685.69;7396740;19;1371;-35
2023/07/11 11:32:55;;;;;;;;;;;;;;;25.06;65.18;100675.81;7397534;19;1480;-36
2023/07/11 11:35:30;;;;;;;;;;;;;;;24.94;65.37;100664.56;7396153;19;1294;-36
2023/07/11 11:38:18;;;;;;;;;;;;;;;24.86;65.78;100654.63;7396547;19;1649;-36
2023/07/11 11:40:49;;;;;;;;;;;;;;;24.93;65.67;100658.31;7396517;19;1535;-36
2023/07/11 11:43:19;;;;;;;;;;;;;;;25.05;65.35;100666.00;7396312;19;1533;-36
2023/07/11 11:45:49;;;;;;;;;;;;;;;24.95;65.66;100648.16;7396737;19;1604;-36
2023/07/11 11:48:19;;;;;;;;;;;;;;;24.93;65.74;100655.59;7396924;19;1661;-36
2023/07/11 11:50:50;;;;;;;;;;;;;;;24.91;65.61;100663.06;7395774;19;1262;-36
2023/07/11 11:53:22;;;;;;;;;;;;;;;24.86;65.98;100643.78;7396069;19;1863;-36
2023/07/11 11:55:53;;;;;;;;;;;;;;;24.94;65.97;100641.03;7395423;19;1539;-36
2023/07/11 11:58:22;;;;;;;;;;;;;;;24.86;66.07;100651.91;7395588;19;1252;-36
2023/07/11 12:00:51;;;;;;;;;;;;;;;24.86;65.85;100626.72;7394255;19;1514;-36
2023/07/11 12:03:26;;;;;;;;;;;;;;;24.86;65.85;100632.97;7393402;19;1164;-36
2023/07/11 12:05:58;;;;;;;;;;;;;;;24.97;65.84;100627.19;7394956;19;1455;-36
2023/07/11 12:08:28;;;;;;;;;;;;;;;25.04;65.28;100605.66;7395652;19;1188;-36
2023/07/11 12:11:04;;;;;;;;;;;;;;;24.96;65.52;100609.25;7394654;19;1343;-35
2023/07/11 12:13:32;;;;;;;;;;;;;;;24.94;65.44;100619.41;7394842;19;1881;-35
2023/07/11 12:16:03;;;;;;;;;;;;;;;24.95;65.72;100620.25;7393589;19;1529;-35
2023/07/11 12:18:39;;;;;;;;;;;;;;;24.84;65.82;100605.25;7392065;19;1569;-35
2023/07/11 12:21:19;;;;;;;;;;;;;;;24.85;65.98;100596.16;7392747;19;1965;-35
2023/07/11 12:23:48;;;;;;;;;;;;;;;24.81;62.51;100611.03;7394482;19;1214;-35
2023/07/11 12:26:17;;;;;;;;;;;;;;;24.67;62.27;100600.97;7394046;19;1041;-35
2023/07/11 12:28:47;;;;;;;;;;;;;;;24.59;62.24;100597.31;7393854;19;1183;-35
2023/07/11 12:31:19;;;;;;;;;;;;;;;24.61;63.15;100597.97;7394544;19;1485;-35
2023/07/11 12:33:55;;;;;;;;;;;;;;;24.90;63.29;100593.72;7395905;19;1839;-35
2023/07/11 12:36:38;;;;;;;;;;;;;;;24.84;63.79;100596.31;7395923;19;1556;-35
2023/07/11 12:39:16;;;;;;;;;;;;;;;24.76;64.38;100589.09;7395349;19;1621;-35
2023/07/11 12:41:49;;;;;;;;;;;;;;;24.75;64.32;100588.25;7395768;19;1464;-36
2023/07/11 12:44:18;;;;;;;;;;;;;;;24.80;64.39;100587.72;7395311;19;1802;-36
2023/07/11 12:46:48;;;;;;;;;;;;;;;24.93;64.33;100596.09;7397363;19;1497;-35
2023/07/11 12:49:19;;;;;;;;;;;;;;;24.94;64.03;100605.88;7396590;19;1391;-35
2023/07/11 12:51:48;;;;;;;;;;;;;;;24.98;64.34;100606.38;7394523;19;1652;-35
2023/07/11 12:54:20;;;;;;;;;;;;;;;24.95;64.35;100596.75;7394291;19;1855;-35
2023/07/11 12:56:49;;;;;;;;;;;;;;;24.96;64.41;100576.78;7395481;19;1765;-35
2023/07/11 12:59:21;;;;;;;;;;;;;;;25.00;64.44;100580.81;7397067;19;1390;-36
2023/07/11 13:01:50;;;;;;;;;;;;;;;25.00;64.46;100582.69;7394272;19;1793;-35